Flight Track Log - Related Links

Times and Time Zones

All times are in EDT time to prevent confusion due to time zone crossing. See the UAL4679 flight status page for this flight to view local times or setup timezone preferences in your user account.

Time Position Orientation Groundspeed Altitude Reporting Facility
EDT Latitude Longitude Course Direction KTS MPH feet Rate Location/Type
Mon 12:14:39 PM 40.5892 -74.1925 224° Southwest 214 246 3,300  Level New York Center
Mon 12:15:39 PM 40.5644 -74.2486 240° Southwest 224 258 5,600 1,350 Climbing New York Center
Mon 12:16:00 PM 40.3649 -74.4499 194° South  Level Estimated
Mon 12:16:39 PM 40.4978 -74.2561 185° South 206 237 6,000  Level New York Center
Mon 12:17:00 PM 40.2829 -74.5197 229° Southwest  Level Estimated
Mon 12:17:39 PM 40.4422 -74.2289 160° South 214 246 6,000  Level New York Center
Mon 12:18:00 PM 40.2008 -74.5894 218° Southwest  Level Estimated
Mon 12:18:39 PM 40.3789 -74.1875 154° Southeast 235 270 6,000  Level New York Center
Mon 12:19:00 PM 40.1188 -74.6590 224° Southwest  Level Estimated
Mon 12:19:39 PM 40.3647 -74.0942 101° East 251 289 7,700  Level New York Center
Mon 12:20:39 PM 40.3039 -74.0394 146° Southeast 237 273 9,900 2,150 Climbing New York Center
Mon 12:21:39 PM 40.2403 -74.0772 204° Southwest 203 234 12,000 1,800 Climbing New York Center
Mon 12:22:39 PM 40.1828 -74.1236 212° Southwest 243 280 13,500 1,145 Climbing New York Center
Mon 12:24:11 PM 40.0617 -74.2117 209° Southwest 301 346 14,900 1,255 Climbing Washington Center
Mon 12:25:12 PM 39.9853 -74.2700 210° Southwest 321 369 16,700 1,765 Climbing Washington Center
Mon 12:26:10 PM 39.9153 -74.3389 217° Southwest 321 369 18,400 1,513 Climbing Washington Center
Mon 12:27:11 PM 39.8450 -74.4050 216° Southwest 321 369 19,700 1,180 Climbing Washington Center
Mon 12:28:12 PM 39.7792 -74.4844 223° Southwest 321 369 20,800 1,041 Climbing Washington Center
Mon 12:29:12 PM 39.7278 -74.5500 224° Southwest 326 375 21,800 1,150 Climbing Washington Center
Mon 12:30:12 PM 39.6578 -74.6456 226° Southwest 331 381 23,100 1,322 Climbing Washington Center
Mon 12:31:10 PM 39.5917 -74.7272 224° Southwest 331 381 24,400 1,220 Climbing Washington Center
Mon 12:32:10 PM 39.5275 -74.8139 226° Southwest 331 381 25,500 1,289 Climbing Washington Center
Mon 12:33:11 PM 39.4656 -74.8981 226° Southwest 326 375 27,000 1,377 Climbing Washington Center
Mon 12:34:12 PM 39.4014 -74.9792 224° Southwest 326 375 28,300 1,289 Climbing Washington Center
Mon 12:35:12 PM 39.3414 -75.0603 226° Southwest 326 375 29,600 1,128 Climbing Washington Center
Mon 12:36:09 PM 39.2708 -75.1306 218° Southwest 326 375 30,500 966 Climbing Washington Center
Mon 12:37:10 PM 39.1856 -75.1658 198° South 321 369 31,500 992 Climbing Washington Center
Mon 12:38:10 PM 39.0961 -75.2011 197° South 326 375 32,500 1,000 Climbing Washington Center
Mon 12:39:10 PM 39.0106 -75.2311 195° South 326 375 33,500 1,033 Climbing Washington Center
Mon 12:40:12 PM 38.9253 -75.2714 200° South 326 375 34,600 1,000 Climbing Washington Center
Mon 12:41:10 PM 38.8442 -75.3039 197° South 326 375 35,500 712 Climbing Washington Center
Mon 12:42:10 PM 38.7586 -75.3361 196° South 326 375 36,000 248 Climbing Washington Center
Mon 12:43:11 PM 38.6733 -75.3764 200° South 326 375 36,000  Level Washington Center
Mon 12:44:12 PM 38.5794 -75.4139 197° South 332 382 36,000  Level Washington Center
Mon 12:45:09 PM 38.4836 -75.4539 198° South 346 398 36,000  Level Washington Center
Mon 12:46:10 PM 38.3817 -75.4964 198° South 368 423 36,000  Level Washington Center
Mon 12:47:10 PM 38.2878 -75.5625 209° Southwest 382 440 36,000  Level Washington Center
Mon 12:48:10 PM 38.2003 -75.6444 216° Southwest 388 447 36,000  Level Washington Center
Mon 12:49:11 PM 38.1147 -75.7264 217° Southwest 393 452 36,000  Level Washington Center
Mon 12:50:11 PM 38.0228 -75.8211 219° Southwest 394 453 36,000  Level Washington Center
Mon 12:51:11 PM 37.9414 -75.8867 212° Southwest 389 448 36,000  Level Washington Center
Mon 12:52:10 PM 37.8536 -75.9706 217° Southwest 389 448 36,000  Level Washington Center
Mon 12:53:11 PM 37.7592 -76.0672 219° Southwest 394 453 36,000  Level Washington Center
Mon 12:54:12 PM 37.6692 -76.1506 216° Southwest 394 453 36,000  Level Washington Center
Mon 12:55:12 PM 37.5856 -76.2208 214° Southwest 401 461 36,000  Level Washington Center
Mon 12:56:10 PM 37.4953 -76.3039 216° Southwest 406 467 36,000  Level Washington Center
Mon 12:57:11 PM 37.4053 -76.3842 215° Southwest 406 467 36,000  Level Washington Center
Mon 12:58:12 PM 37.3169 -76.4642 216° Southwest 406 467 36,000  Level Washington Center
Mon 12:59:12 PM 37.2289 -76.5467 217° Southwest 406 467 36,000  Level Washington Center
Mon 01:00:10 PM 37.1383 -76.6261 215° Southwest 406 467 36,000  Level Washington Center
Mon 01:01:10 PM 37.0500 -76.7108 217° Southwest 406 467 36,000  Level Washington Center
Mon 01:02:11 PM 36.9617 -76.7903 216° Southwest 406 467 36,000  Level Washington Center
Mon 01:03:11 PM 36.8731 -76.8719 216° Southwest 406 467 36,000  Level Washington Center
Mon 01:04:12 PM 36.7867 -76.9533 217° Southwest 401 461 36,000  Level Washington Center
Mon 01:05:11 PM 36.7003 -77.0375 218° Southwest 401 461 36,000  Level Washington Center
Mon 01:06:12 PM 36.6117 -77.1161 215° Southwest 401 461 36,000  Level Washington Center
Mon 01:07:12 PM 36.5250 -77.1997 218° Southwest 396 456 36,000  Level Washington Center
Mon 01:08:12 PM 36.4364 -77.2806 216° Southwest 391 450 36,000  Level Washington Center
Mon 01:09:10 PM 36.3517 -77.3611 217° Southwest 391 450 36,000  Level Washington Center
Mon 01:10:10 PM 36.2650 -77.4417 217° Southwest 391 450 36,000  Level Washington Center
Mon 01:11:11 PM 36.1781 -77.5194 216° Southwest 391 450 36,000  Level Washington Center
Mon 01:12:12 PM 36.0892 -77.6019 217° Southwest 391 450 36,000  Level Washington Center
Mon 01:13:10 PM 36.0044 -77.6819 217° Southwest 391 450 36,000  Level Washington Center
Mon 01:14:11 PM 35.9133 -77.7567 214° Southwest 391 450 36,000  Level Washington Center
Mon 01:15:12 PM 35.8203 -77.8258 211° Southwest 391 450 36,000  Level Washington Center
Mon 01:16:10 PM 35.7269 -77.9025 214° Southwest 397 457 36,000  Level Washington Center
Mon 01:17:10 PM 35.6317 -77.9739 211° Southwest 403 464 36,000  Level Washington Center
Mon 01:18:12 PM 35.5383 -78.0475 213° Southwest 403 464 36,000  Level Washington Center
Mon 01:19:10 PM 35.4450 -78.1186 212° Southwest 403 464 36,000  Level Washington Center
Mon 01:20:10 PM 35.3494 -78.1919 212° Southwest 403 464 36,000  Level Washington Center
Mon 01:21:11 PM 35.2561 -78.2653 213° Southwest 403 464 36,000  Level Washington Center
Mon 01:22:12 PM 35.1628 -78.3383 213° Southwest 403 464 36,000  Level Washington Center
Mon 01:23:12 PM 35.0669 -78.4139 213° Southwest 403 464 36,000  Level Washington Center
Mon 01:24:12 PM 34.9736 -78.4867 213° Southwest 408 470 36,000  Level Washington Center
Mon 01:25:46 PM 34.8211 -78.6014 212° Southwest 403 464 36,000  Level Jacksonville Center
Mon 01:26:46 PM 34.7294 -78.6717 212° Southwest 398 458 36,000  Level Jacksonville Center
Mon 01:27:46 PM 34.6361 -78.7442 213° Southwest 398 458 36,000  Level Jacksonville Center
Mon 01:28:46 PM 34.5403 -78.8144 211° Southwest 398 458 36,000  Level Jacksonville Center
Mon 01:29:46 PM 34.4469 -78.8917 214° Southwest 398 458 36,000 -200 Level Jacksonville Center
Mon 01:30:46 PM 34.3531 -78.9642 213° Southwest 404 465 35,600 -700 Descending Jacksonville Center
Mon 01:31:46 PM 34.2572 -79.0361 212° Southwest 404 465 34,600 -800 Descending Jacksonville Center
Mon 01:32:46 PM 34.1592 -79.1058 210° Southwest 404 465 34,000 -300 Descending Jacksonville Center
Mon 01:33:46 PM 34.0656 -79.1775 212° Southwest 404 465 34,000  Level Jacksonville Center
Mon 01:34:47 PM 33.9675 -79.2494 211° Southwest 404 465 34,000  Level Jacksonville Center
Mon 01:35:46 PM 33.8672 -79.3233 211° Southwest 410 472 34,000  Level Jacksonville Center
Mon 01:36:46 PM 33.7692 -79.3975 212° Southwest 421 484 34,000  Level Jacksonville Center
Mon 01:37:46 PM 33.6772 -79.4658 212° Southwest 412 474 34,000 -450 Level Jacksonville Center
Mon 01:38:46 PM 33.5769 -79.5372 211° Southwest 412 474 33,100 -950 Descending Jacksonville Center
Mon 01:39:46 PM 33.4767 -79.6106 211° Southwest 412 474 32,100 -1,000 Descending Jacksonville Center
Mon 01:40:46 PM 33.3783 -79.6839 212° Southwest 417 480 31,100 -1,050 Descending Jacksonville Center
Mon 01:41:46 PM 33.2758 -79.7572 211° Southwest 423 487 30,000 -550 Descending Jacksonville Center
Mon 01:42:46 PM 33.1775 -79.8300 212° Southwest 423 487 30,000  Level Jacksonville Center
Mon 01:43:46 PM 33.0769 -79.9031 211° Southwest 423 487 30,000  Level Jacksonville Center
Mon 01:44:46 PM 32.9783 -79.9731 211° Southwest 423 487 30,000  Level Jacksonville Center
Mon 01:45:46 PM 32.8778 -80.0481 212° Southwest 423 487 30,000  Level Jacksonville Center
Mon 01:46:46 PM 32.7711 -80.1306 213° Southwest 423 487 30,000  Level Jacksonville Center
Mon 01:47:46 PM 32.6744 -80.2075 214° Southwest 423 487 30,000  Level Jacksonville Center
Mon 01:48:46 PM 32.5781 -80.2842 214° Southwest 423 487 30,000  Level Jacksonville Center
Mon 01:49:46 PM 32.4814 -80.3586 213° Southwest 423 487 30,000  Level Jacksonville Center
Mon 01:50:46 PM 32.3869 -80.4350 214° Southwest 423 487 30,000  Level Jacksonville Center
Mon 01:51:46 PM 32.2881 -80.5089 212° Southwest 417 480 30,000  Level Jacksonville Center
Mon 01:52:46 PM 32.1936 -80.5825 213° Southwest 415 478 30,000  Level Jacksonville Center
Mon 01:53:46 PM 32.0989 -80.6583 214° Southwest 410 472 30,000 -850 Level Jacksonville Center
Mon 01:54:46 PM 32.0081 -80.7244 212° Southwest 421 484 28,300 -2,200 Descending Jacksonville Center
Mon 01:55:46 PM 31.8947 -80.8128 214° Southwest 442 509 25,600 -2,150 Descending Jacksonville Center
Mon 01:56:46 PM 31.8019 -80.8808 212° Southwest 442 509 24,000 -1,300 Descending Jacksonville Center
Mon 01:57:46 PM 31.6947 -80.9636 213° Southwest 428 493 23,000 -1,650 Descending Jacksonville Center
Mon 01:58:46 PM 31.5956 -81.0364 212° Southwest 428 493 20,700 -2,350 Descending Jacksonville Center
Mon 01:59:46 PM 31.5128 -81.0989 213° Southwest 417 480 18,300 -2,650 Descending Jacksonville Center
Mon 02:00:46 PM 31.4158 -81.1714 213° Southwest 389 448 15,400 -2,550 Descending Jacksonville Center
Mon 02:01:46 PM 31.3311 -81.2386 214° Southwest 393 452 13,200 -1,900 Descending Jacksonville Center
Mon 02:02:46 PM 31.2483 -81.3058 215° Southwest 387 445 11,600 -1,645 Descending Jacksonville Center
Mon 02:02:48 PM 31.2419 -81.3011 148° Southeast 358 412 11,500 -1,100 Descending Jacksonville Center
Mon 02:03:46 PM 31.1656 -81.3631 215° Southwest 375 432 10,500 -1,182 Descending Jacksonville Center
Mon 02:03:54 PM 31.1469 -81.3756 210° Southwest 352 405 10,200 -500 Descending Jacksonville Center
Mon 02:04:46 PM 31.0847 -81.4200 211° Southwest 350 403 10,000 -197 Descending Jacksonville Center
Mon 02:04:55 PM 31.0639 -81.4228 187° South 349 402 10,000  Level Jacksonville Center
Mon 02:05:46 PM 30.9911 -81.4506 198° South 345 397 10,000  Level Jacksonville Center
Mon 02:05:56 PM 30.9683 -81.4558 191° South 353 406 10,000 -100 Level Jacksonville Center
Mon 02:06:46 PM 30.8975 -81.4764 194° South 345 397 9,900  Descending Jacksonville Center
Mon 02:06:57 PM 30.8725 -81.4792 185° South 304 350 10,000 -900 Climbing Jacksonville Center
Mon 02:07:46 PM 30.8228 -81.5017 201° Southwest 317 365 9,000 -1,672 Descending Jacksonville Center
Mon 02:07:58 PM 30.8042 -81.5164 214° Southwest 272 313 8,300 -2,000 Descending Jacksonville Center
Mon 02:08:46 PM 30.7625 -81.5508 215° Southwest 289 333 7,000 -1,800 Descending Jacksonville Center
Mon 02:08:58 PM 30.7442 -81.5681 219° Southwest 271 312 6,500 -1,500 Descending Jacksonville Center
Mon 02:09:46 PM 30.7025 -81.6025 215° Southwest 274 315 5,500 -1,527 Descending Jacksonville Center
Mon 02:09:53 PM 30.6922 -81.6147 226° Southwest 258 297 5,100 -1,500 Descending Jacksonville Center
Mon 02:10:46 PM 30.6531 -81.6611 226° Southwest 267 307 4,000 -1,475 Descending Jacksonville Center
Mon 02:10:54 PM 30.6447 -81.6708 225° Southwest 249 287 3,600 -1,500 Descending Jacksonville Center
Mon 02:11:46 PM 30.6078 -81.7172 227° Southwest 256 295 2,500 -1,377 Descending Jacksonville Center
Mon 02:11:55 PM 30.5931 -81.7294 216° Southwest 243 280 2,200 -563 Descending Jacksonville Center
Mon 02:12:50 PM 30.5453 -81.7542 204° Southwest 199 229 1,900 -595 Descending Jacksonville Center
Mon 02:13:56 PM 30.4972 -81.7475 173° South 143 165 1,000 -818 Descending Jacksonville Center

Login

Don't have an account? Register now (free) for customized features, flight alerts, and more!